sensor_id;sensor_type;location;lat;lon;timestamp;P1;durP1;ratioP1;P2;durP2;ratioP2
20154;SDS011;10238;49.556;10.956;2022-12-18T00:00:10;65.38;;;26.98;;
20154;SDS011;10238;49.556;10.956;2022-12-18T00:02:59;69.88;;;28.73;;
20154;SDS011;10238;49.556;10.956;2022-12-18T00:05:48;58.30;;;26.60;;
20154;SDS011;10238;49.556;10.956;2022-12-18T00:08:37;71.70;;;28.63;;
20154;SDS011;10238;49.556;10.956;2022-12-18T00:11:25;68.10;;;28.17;;
20154;SDS011;10238;49.556;10.956;2022-12-18T00:14:16;72.40;;;29.13;;
20154;SDS011;10238;49.556;10.956;2022-12-18T00:17:04;64.00;;;26.83;;
20154;SDS011;10238;49.556;10.956;2022-12-18T00:19:53;67.75;;;28.25;;
20154;SDS011;10238;49.556;10.956;2022-12-18T00:22:42;69.15;;;28.73;;
20154;SDS011;10238;49.556;10.956;2022-12-18T00:25:32;69.30;;;28.92;;
20154;SDS011;10238;49.556;10.956;2022-12-18T00:28:20;66.10;;;28.40;;
20154;SDS011;10238;49.556;10.956;2022-12-18T00:31:09;65.97;;;28.65;;
20154;SDS011;10238;49.556;10.956;2022-12-18T00:33:58;71.57;;;29.10;;
20154;SDS011;10238;49.556;10.956;2022-12-18T00:36:47;64.90;;;27.23;;
20154;SDS011;10238;49.556;10.956;2022-12-18T00:39:36;66.53;;;28.90;;
20154;SDS011;10238;49.556;10.956;2022-12-18T00:42:24;64.20;;;28.27;;
20154;SDS011;10238;49.556;10.956;2022-12-18T00:45:30;67.47;;;29.48;;
20154;SDS011;10238;49.556;10.956;2022-12-18T00:48:18;70.00;;;29.20;;
20154;SDS011;10238;49.556;10.956;2022-12-18T00:51:06;66.70;;;30.27;;
20154;SDS011;10238;49.556;10.956;2022-12-18T00:53:54;61.35;;;27.38;;
20154;SDS011;10238;49.556;10.956;2022-12-18T00:56:44;68.75;;;28.35;;
20154;SDS011;10238;49.556;10.956;2022-12-18T00:59:34;56.33;;;26.70;;
20154;SDS011;10238;49.556;10.956;2022-12-18T01:02:24;68.63;;;28.70;;
20154;SDS011;10238;49.556;10.956;2022-12-18T01:05:13;59.15;;;26.45;;
20154;SDS011;10238;49.556;10.956;2022-12-18T01:08:02;65.38;;;26.48;;
20154;SDS011;10238;49.556;10.956;2022-12-18T01:10:50;58.05;;;26.05;;
20154;SDS011;10238;49.556;10.956;2022-12-18T01:13:39;61.45;;;26.38;;
20154;SDS011;10238;49.556;10.956;2022-12-18T01:16:27;66.93;;;26.02;;
20154;SDS011;10238;49.556;10.956;2022-12-18T01:19:15;61.95;;;25.38;;
20154;SDS011;10238;49.556;10.956;2022-12-18T01:22:03;55.05;;;23.48;;
20154;SDS011;10238;49.556;10.956;2022-12-18T01:24:51;51.58;;;23.80;;
20154;SDS011;10238;49.556;10.956;2022-12-18T01:27:39;50.53;;;22.20;;
20154;SDS011;10238;49.556;10.956;2022-12-18T01:30:28;57.78;;;24.52;;
20154;SDS011;10238;49.556;10.956;2022-12-18T01:33:16;56.40;;;23.55;;
20154;SDS011;10238;49.556;10.956;2022-12-18T01:36:04;57.33;;;24.85;;
20154;SDS011;10238;49.556;10.956;2022-12-18T01:38:53;50.65;;;22.83;;
20154;SDS011;10238;49.556;10.956;2022-12-18T01:41:44;53.50;;;23.15;;
20154;SDS011;10238;49.556;10.956;2022-12-18T01:44:56;56.15;;;24.02;;
20154;SDS011;10238;49.556;10.956;2022-12-18T01:47:51;53.13;;;23.52;;
20154;SDS011;10238;49.556;10.956;2022-12-18T01:50:43;52.65;;;23.55;;
20154;SDS011;10238;49.556;10.956;2022-12-18T01:53:31;57.50;;;24.10;;
20154;SDS011;10238;49.556;10.956;2022-12-18T01:56:20;49.75;;;22.85;;
20154;SDS011;10238;49.556;10.956;2022-12-18T01:59:08;52.47;;;23.88;;
20154;SDS011;10238;49.556;10.956;2022-12-18T02:01:57;56.15;;;22.63;;
20154;SDS011;10238;49.556;10.956;2022-12-18T02:04:47;59.83;;;23.00;;
20154;SDS011;10238;49.556;10.956;2022-12-18T02:07:37;47.30;;;22.63;;
20154;SDS011;10238;49.556;10.956;2022-12-18T02:10:34;54.33;;;23.25;;
20154;SDS011;10238;49.556;10.956;2022-12-18T02:13:29;54.17;;;23.15;;
20154;SDS011;10238;49.556;10.956;2022-12-18T02:16:29;54.03;;;23.85;;
20154;SDS011;10238;49.556;10.956;2022-12-18T02:22:49;49.58;;;20.83;;
20154;SDS011;10238;49.556;10.956;2022-12-18T02:26:00;54.17;;;24.00;;
20154;SDS011;10238;49.556;10.956;2022-12-18T02:28:54;55.00;;;23.27;;
20154;SDS011;10238;49.556;10.956;2022-12-18T02:31:47;61.33;;;23.90;;
20154;SDS011;10238;49.556;10.956;2022-12-18T02:34:39;59.05;;;24.88;;
20154;SDS011;10238;49.556;10.956;2022-12-18T02:37:29;56.17;;;23.70;;
20154;SDS011;10238;49.556;10.956;2022-12-18T02:40:21;55.65;;;24.88;;
20154;SDS011;10238;49.556;10.956;2022-12-18T02:43:13;56.38;;;22.38;;
20154;SDS011;10238;49.556;10.956;2022-12-18T02:49:17;52.10;;;22.67;;
20154;SDS011;10238;49.556;10.956;2022-12-18T02:52:18;56.20;;;22.02;;
20154;SDS011;10238;49.556;10.956;2022-12-18T02:55:19;56.58;;;22.95;;
20154;SDS011;10238;49.556;10.956;2022-12-18T02:58:20;62.42;;;25.73;;
20154;SDS011;10238;49.556;10.956;2022-12-18T03:01:19;66.78;;;24.13;;
20154;SDS011;10238;49.556;10.956;2022-12-18T03:04:13;67.47;;;25.20;;
20154;SDS011;10238;49.556;10.956;2022-12-18T03:07:08;63.33;;;23.45;;
20154;SDS011;10238;49.556;10.956;2022-12-18T03:10:02;62.30;;;23.23;;
20154;SDS011;10238;49.556;10.956;2022-12-18T03:12:53;56.67;;;21.77;;
20154;SDS011;10238;49.556;10.956;2022-12-18T03:15:52;74.57;;;23.92;;
20154;SDS011;10238;49.556;10.956;2022-12-18T03:18:43;65.15;;;24.27;;
20154;SDS011;10238;49.556;10.956;2022-12-18T03:21:35;56.38;;;21.75;;
20154;SDS011;10238;49.556;10.956;2022-12-18T03:24:27;40.60;;;16.50;;
20154;SDS011;10238;49.556;10.956;2022-12-18T03:27:18;68.47;;;24.05;;
20154;SDS011;10238;49.556;10.956;2022-12-18T03:30:11;63.63;;;24.10;;
20154;SDS011;10238;49.556;10.956;2022-12-18T03:33:04;70.88;;;23.27;;
20154;SDS011;10238;49.556;10.956;2022-12-18T03:35:55;55.38;;;21.75;;
20154;SDS011;10238;49.556;10.956;2022-12-18T03:38:44;51.58;;;22.25;;
20154;SDS011;10238;49.556;10.956;2022-12-18T03:41:33;61.08;;;22.55;;
20154;SDS011;10238;49.556;10.956;2022-12-18T03:44:32;65.13;;;22.13;;
20154;SDS011;10238;49.556;10.956;2022-12-18T03:47:30;55.35;;;20.83;;
20154;SDS011;10238;49.556;10.956;2022-12-18T03:50:27;48.65;;;20.05;;
20154;SDS011;10238;49.556;10.956;2022-12-18T03:53:24;51.33;;;19.13;;
20154;SDS011;10238;49.556;10.956;2022-12-18T03:56:19;46.28;;;19.85;;
20154;SDS011;10238;49.556;10.956;2022-12-18T03:59:13;49.40;;;19.90;;
20154;SDS011;10238;49.556;10.956;2022-12-18T04:02:03;47.20;;;17.75;;
20154;SDS011;10238;49.556;10.956;2022-12-18T04:04:53;44.40;;;18.95;;
20154;SDS011;10238;49.556;10.956;2022-12-18T04:07:47;44.88;;;17.98;;
20154;SDS011;10238;49.556;10.956;2022-12-18T04:10:36;47.30;;;18.15;;
20154;SDS011;10238;49.556;10.956;2022-12-18T04:13:27;45.28;;;18.08;;
20154;SDS011;10238;49.556;10.956;2022-12-18T04:16:18;38.45;;;16.70;;
20154;SDS011;10238;49.556;10.956;2022-12-18T04:19:06;47.47;;;17.67;;
20154;SDS011;10238;49.556;10.956;2022-12-18T04:21:54;42.97;;;17.00;;
20154;SDS011;10238;49.556;10.956;2022-12-18T04:24:44;34.25;;;16.35;;
20154;SDS011;10238;49.556;10.956;2022-12-18T04:27:32;42.85;;;16.63;;
20154;SDS011;10238;49.556;10.956;2022-12-18T04:30:20;36.75;;;16.23;;
20154;SDS011;10238;49.556;10.956;2022-12-18T04:33:09;32.72;;;14.95;;
20154;SDS011;10238;49.556;10.956;2022-12-18T04:35:58;41.17;;;15.27;;
20154;SDS011;10238;49.556;10.956;2022-12-18T04:38:46;38.97;;;15.75;;
20154;SDS011;10238;49.556;10.956;2022-12-18T04:41:35;34.55;;;15.50;;
20154;SDS011;10238;49.556;10.956;2022-12-18T04:44:23;34.80;;;13.68;;
20154;SDS011;10238;49.556;10.956;2022-12-18T04:47:11;36.25;;;14.82;;
20154;SDS011;10238;49.556;10.956;2022-12-18T04:49:58;34.85;;;15.05;;
20154;SDS011;10238;49.556;10.956;2022-12-18T04:52:47;35.00;;;14.15;;
20154;SDS011;10238;49.556;10.956;2022-12-18T04:55:35;37.58;;;14.82;;
20154;SDS011;10238;49.556;10.956;2022-12-18T04:58:24;40.20;;;15.50;;
20154;SDS011;10238;49.556;10.956;2022-12-18T05:01:13;34.53;;;15.25;;
20154;SDS011;10238;49.556;10.956;2022-12-18T05:04:03;43.47;;;14.88;;
20154;SDS011;10238;49.556;10.956;2022-12-18T05:06:51;37.20;;;13.95;;
20154;SDS011;10238;49.556;10.956;2022-12-18T05:09:39;36.00;;;15.27;;
20154;SDS011;10238;49.556;10.956;2022-12-18T05:12:27;41.30;;;14.15;;
20154;SDS011;10238;49.556;10.956;2022-12-18T05:15:16;33.60;;;14.48;;
20154;SDS011;10238;49.556;10.956;2022-12-18T05:18:05;37.58;;;14.63;;
20154;SDS011;10238;49.556;10.956;2022-12-18T05:20:53;43.05;;;16.42;;
20154;SDS011;10238;49.556;10.956;2022-12-18T05:23:40;38.08;;;14.13;;
20154;SDS011;10238;49.556;10.956;2022-12-18T05:26:29;32.95;;;14.07;;
20154;SDS011;10238;49.556;10.956;2022-12-18T05:29:18;37.10;;;14.35;;
20154;SDS011;10238;49.556;10.956;2022-12-18T05:32:07;37.70;;;14.80;;
20154;SDS011;10238;49.556;10.956;2022-12-18T05:34:55;39.55;;;15.07;;
20154;SDS011;10238;49.556;10.956;2022-12-18T05:37:43;41.30;;;14.10;;
20154;SDS011;10238;49.556;10.956;2022-12-18T05:40:31;38.22;;;14.70;;
20154;SDS011;10238;49.556;10.956;2022-12-18T05:43:19;34.60;;;13.70;;
20154;SDS011;10238;49.556;10.956;2022-12-18T05:46:08;44.50;;;15.65;;
20154;SDS011;10238;49.556;10.956;2022-12-18T05:49:02;39.38;;;15.13;;
20154;SDS011;10238;49.556;10.956;2022-12-18T05:51:50;44.42;;;15.65;;
20154;SDS011;10238;49.556;10.956;2022-12-18T05:54:38;38.13;;;14.68;;
20154;SDS011;10238;49.556;10.956;2022-12-18T05:57:26;37.92;;;13.65;;
20154;SDS011;10238;49.556;10.956;2022-12-18T06:00:15;37.53;;;13.40;;
20154;SDS011;10238;49.556;10.956;2022-12-18T06:03:03;40.10;;;15.10;;
20154;SDS011;10238;49.556;10.956;2022-12-18T06:05:52;37.80;;;14.40;;
20154;SDS011;10238;49.556;10.956;2022-12-18T06:08:40;43.15;;;14.95;;
20154;SDS011;10238;49.556;10.956;2022-12-18T06:11:31;39.20;;;14.73;;
20154;SDS011;10238;49.556;10.956;2022-12-18T06:14:21;46.25;;;15.20;;
20154;SDS011;10238;49.556;10.956;2022-12-18T06:17:09;34.20;;;14.35;;
20154;SDS011;10238;49.556;10.956;2022-12-18T06:19:56;39.30;;;14.65;;
20154;SDS011;10238;49.556;10.956;2022-12-18T06:22:46;33.78;;;13.27;;
20154;SDS011;10238;49.556;10.956;2022-12-18T06:28:25;30.23;;;12.85;;
20154;SDS011;10238;49.556;10.956;2022-12-18T06:31:13;36.88;;;13.82;;
20154;SDS011;10238;49.556;10.956;2022-12-18T06:34:02;35.45;;;14.23;;
20154;SDS011;10238;49.556;10.956;2022-12-18T06:36:50;38.75;;;14.85;;
20154;SDS011;10238;49.556;10.956;2022-12-18T06:39:39;32.55;;;14.32;;
20154;SDS011;10238;49.556;10.956;2022-12-18T06:42:28;36.60;;;14.43;;
20154;SDS011;10238;49.556;10.956;2022-12-18T06:45:16;39.55;;;14.32;;
20154;SDS011;10238;49.556;10.956;2022-12-18T06:48:04;39.75;;;14.40;;
20154;SDS011;10238;49.556;10.956;2022-12-18T06:50:52;38.55;;;15.20;;
20154;SDS011;10238;49.556;10.956;2022-12-18T06:53:40;37.25;;;14.38;;
20154;SDS011;10238;49.556;10.956;2022-12-18T06:56:30;41.38;;;14.50;;
20154;SDS011;10238;49.556;10.956;2022-12-18T06:59:18;39.97;;;14.13;;
20154;SDS011;10238;49.556;10.956;2022-12-18T07:02:06;35.78;;;14.27;;
20154;SDS011;10238;49.556;10.956;2022-12-18T07:04:57;38.22;;;13.65;;
20154;SDS011;10238;49.556;10.956;2022-12-18T07:07:50;39.72;;;15.45;;
20154;SDS011;10238;49.556;10.956;2022-12-18T07:10:40;36.92;;;14.85;;
20154;SDS011;10238;49.556;10.956;2022-12-18T07:13:34;40.47;;;14.05;;
20154;SDS011;10238;49.556;10.956;2022-12-18T07:16:23;34.42;;;13.88;;
20154;SDS011;10238;49.556;10.956;2022-12-18T07:19:13;40.28;;;13.50;;
20154;SDS011;10238;49.556;10.956;2022-12-18T07:22:02;35.38;;;13.50;;
20154;SDS011;10238;49.556;10.956;2022-12-18T07:24:50;36.70;;;14.38;;
20154;SDS011;10238;49.556;10.956;2022-12-18T07:27:39;40.63;;;14.30;;
20154;SDS011;10238;49.556;10.956;2022-12-18T07:30:31;41.25;;;13.73;;
20154;SDS011;10238;49.556;10.956;2022-12-18T07:33:19;27.20;;;12.48;;
20154;SDS011;10238;49.556;10.956;2022-12-18T07:36:08;34.15;;;13.35;;
20154;SDS011;10238;49.556;10.956;2022-12-18T07:38:57;34.13;;;13.05;;
20154;SDS011;10238;49.556;10.956;2022-12-18T07:41:45;36.67;;;14.07;;
20154;SDS011;10238;49.556;10.956;2022-12-18T07:44:53;38.03;;;13.60;;
20154;SDS011;10238;49.556;10.956;2022-12-18T07:47:42;33.75;;;14.80;;
20154;SDS011;10238;49.556;10.956;2022-12-18T07:50:31;36.40;;;15.40;;
20154;SDS011;10238;49.556;10.956;2022-12-18T07:53:19;36.25;;;13.70;;
20154;SDS011;10238;49.556;10.956;2022-12-18T07:56:08;40.60;;;15.70;;
20154;SDS011;10238;49.556;10.956;2022-12-18T07:59:15;41.17;;;15.43;;
20154;SDS011;10238;49.556;10.956;2022-12-18T08:02:05;38.95;;;16.08;;
20154;SDS011;10238;49.556;10.956;2022-12-18T08:04:55;42.25;;;15.52;;
20154;SDS011;10238;49.556;10.956;2022-12-18T08:07:44;34.55;;;13.20;;
20154;SDS011;10238;49.556;10.956;2022-12-18T08:10:32;42.95;;;14.63;;
20154;SDS011;10238;49.556;10.956;2022-12-18T08:13:21;34.97;;;13.55;;
20154;SDS011;10238;49.556;10.956;2022-12-18T08:16:08;42.75;;;15.18;;
20154;SDS011;10238;49.556;10.956;2022-12-18T08:18:57;40.20;;;14.77;;
20154;SDS011;10238;49.556;10.956;2022-12-18T08:21:46;39.00;;;14.48;;
20154;SDS011;10238;49.556;10.956;2022-12-18T08:24:37;32.83;;;12.93;;
20154;SDS011;10238;49.556;10.956;2022-12-18T08:27:25;43.10;;;15.07;;
20154;SDS011;10238;49.556;10.956;2022-12-18T08:30:15;37.70;;;13.45;;
20154;SDS011;10238;49.556;10.956;2022-12-18T08:33:03;37.75;;;14.40;;
20154;SDS011;10238;49.556;10.956;2022-12-18T08:35:52;38.20;;;14.35;;
20154;SDS011;10238;49.556;10.956;2022-12-18T08:38:41;34.30;;;13.10;;
20154;SDS011;10238;49.556;10.956;2022-12-18T08:41:32;36.20;;;13.98;;
20154;SDS011;10238;49.556;10.956;2022-12-18T08:44:20;37.72;;;14.73;;
20154;SDS011;10238;49.556;10.956;2022-12-18T08:47:25;40.05;;;17.52;;
20154;SDS011;10238;49.556;10.956;2022-12-18T08:50:13;39.80;;;16.00;;
20154;SDS011;10238;49.556;10.956;2022-12-18T08:53:02;58.90;;;24.45;;
20154;SDS011;10238;49.556;10.956;2022-12-18T08:55:51;38.25;;;16.13;;
20154;SDS011;10238;49.556;10.956;2022-12-18T08:58:40;46.47;;;18.40;;
20154;SDS011;10238;49.556;10.956;2022-12-18T09:01:28;40.47;;;16.58;;
20154;SDS011;10238;49.556;10.956;2022-12-18T09:04:16;38.60;;;15.50;;
20154;SDS011;10238;49.556;10.956;2022-12-18T09:07:04;41.08;;;16.33;;
20154;SDS011;10238;49.556;10.956;2022-12-18T09:09:52;42.90;;;17.17;;
20154;SDS011;10238;49.556;10.956;2022-12-18T09:12:42;52.97;;;20.98;;
20154;SDS011;10238;49.556;10.956;2022-12-18T09:15:30;37.97;;;14.73;;
20154;SDS011;10238;49.556;10.956;2022-12-18T09:18:19;41.75;;;16.20;;
20154;SDS011;10238;49.556;10.956;2022-12-18T09:21:08;40.00;;;17.10;;
20154;SDS011;10238;49.556;10.956;2022-12-18T09:23:57;39.53;;;15.65;;
20154;SDS011;10238;49.556;10.956;2022-12-18T09:26:45;35.42;;;15.30;;
20154;SDS011;10238;49.556;10.956;2022-12-18T09:29:36;34.20;;;14.80;;
20154;SDS011;10238;49.556;10.956;2022-12-18T09:32:24;37.25;;;15.38;;
20154;SDS011;10238;49.556;10.956;2022-12-18T09:35:12;31.83;;;14.15;;
20154;SDS011;10238;49.556;10.956;2022-12-18T09:38:00;38.30;;;14.65;;
20154;SDS011;10238;49.556;10.956;2022-12-18T09:40:49;41.28;;;15.25;;
20154;SDS011;10238;49.556;10.956;2022-12-18T09:43:41;31.27;;;13.77;;
20154;SDS011;10238;49.556;10.956;2022-12-18T09:46:34;34.00;;;13.83;;
20154;SDS011;10238;49.556;10.956;2022-12-18T09:49:27;35.38;;;13.73;;
20154;SDS011;10238;49.556;10.956;2022-12-18T09:52:20;34.43;;;14.27;;
20154;SDS011;10238;49.556;10.956;2022-12-18T09:55:14;36.67;;;15.13;;
20154;SDS011;10238;49.556;10.956;2022-12-18T09:58:12;35.22;;;14.57;;
20154;SDS011;10238;49.556;10.956;2022-12-18T10:01:07;32.97;;;13.45;;
20154;SDS011;10238;49.556;10.956;2022-12-18T10:04:01;34.30;;;14.88;;
20154;SDS011;10238;49.556;10.956;2022-12-18T10:06:50;32.45;;;13.05;;
20154;SDS011;10238;49.556;10.956;2022-12-18T10:09:55;33.05;;;13.63;;
20154;SDS011;10238;49.556;10.956;2022-12-18T10:12:50;35.15;;;13.77;;
20154;SDS011;10238;49.556;10.956;2022-12-18T10:15:55;36.22;;;16.15;;
20154;SDS011;10238;49.556;10.956;2022-12-18T10:18:58;38.38;;;18.25;;
20154;SDS011;10238;49.556;10.956;2022-12-18T10:22:03;34.20;;;16.00;;
20154;SDS011;10238;49.556;10.956;2022-12-18T10:25:02;33.38;;;14.18;;
20154;SDS011;10238;49.556;10.956;2022-12-18T10:28:00;32.50;;;14.43;;
20154;SDS011;10238;49.556;10.956;2022-12-18T10:30:56;36.85;;;14.30;;
20154;SDS011;10238;49.556;10.956;2022-12-18T10:33:45;35.13;;;13.32;;
20154;SDS011;10238;49.556;10.956;2022-12-18T10:36:35;30.92;;;14.07;;
20154;SDS011;10238;49.556;10.956;2022-12-18T10:39:24;30.90;;;14.70;;
20154;SDS011;10238;49.556;10.956;2022-12-18T10:42:16;35.50;;;15.35;;
20154;SDS011;10238;49.556;10.956;2022-12-18T10:45:08;29.15;;;14.15;;
20154;SDS011;10238;49.556;10.956;2022-12-18T10:47:59;32.50;;;14.15;;
20154;SDS011;10238;49.556;10.956;2022-12-18T10:50:47;32.75;;;13.52;;
20154;SDS011;10238;49.556;10.956;2022-12-18T10:53:59;33.20;;;13.15;;
20154;SDS011;10238;49.556;10.956;2022-12-18T10:56:50;29.40;;;13.70;;
20154;SDS011;10238;49.556;10.956;2022-12-18T10:59:49;31.77;;;13.68;;
20154;SDS011;10238;49.556;10.956;2022-12-18T11:02:40;31.55;;;13.52;;
20154;SDS011;10238;49.556;10.956;2022-12-18T11:05:29;27.67;;;12.88;;
20154;SDS011;10238;49.556;10.956;2022-12-18T11:08:19;28.58;;;13.18;;
20154;SDS011;10238;49.556;10.956;2022-12-18T11:11:19;30.73;;;13.23;;
20154;SDS011;10238;49.556;10.956;2022-12-18T11:14:12;32.55;;;13.27;;
20154;SDS011;10238;49.556;10.956;2022-12-18T11:17:04;28.15;;;12.93;;
20154;SDS011;10238;49.556;10.956;2022-12-18T11:20:19;31.83;;;13.45;;
20154;SDS011;10238;49.556;10.956;2022-12-18T11:23:11;32.72;;;13.43;;
20154;SDS011;10238;49.556;10.956;2022-12-18T11:25:59;30.92;;;13.77;;
20154;SDS011;10238;49.556;10.956;2022-12-18T11:28:51;33.90;;;14.05;;
20154;SDS011;10238;49.556;10.956;2022-12-18T11:32:01;31.23;;;13.10;;
20154;SDS011;10238;49.556;10.956;2022-12-18T11:35:13;28.88;;;13.63;;
20154;SDS011;10238;49.556;10.956;2022-12-18T11:38:10;25.73;;;12.35;;
20154;SDS011;10238;49.556;10.956;2022-12-18T11:41:06;33.28;;;13.68;;
20154;SDS011;10238;49.556;10.956;2022-12-18T11:44:03;32.58;;;14.60;;
20154;SDS011;10238;49.556;10.956;2022-12-18T11:46:59;29.20;;;13.35;;
20154;SDS011;10238;49.556;10.956;2022-12-18T11:49:52;27.60;;;13.15;;
20154;SDS011;10238;49.556;10.956;2022-12-18T11:52:48;31.15;;;13.80;;
20154;SDS011;10238;49.556;10.956;2022-12-18T11:55:56;32.70;;;13.68;;
20154;SDS011;10238;49.556;10.956;2022-12-18T11:58:51;27.30;;;13.10;;
20154;SDS011;10238;49.556;10.956;2022-12-18T12:01:50;28.88;;;12.93;;
20154;SDS011;10238;49.556;10.956;2022-12-18T12:04:47;25.83;;;13.57;;
20154;SDS011;10238;49.556;10.956;2022-12-18T12:07:51;31.83;;;14.43;;
20154;SDS011;10238;49.556;10.956;2022-12-18T12:10:49;31.15;;;14.10;;
20154;SDS011;10238;49.556;10.956;2022-12-18T12:13:49;30.48;;;13.45;;
20154;SDS011;10238;49.556;10.956;2022-12-18T12:16:47;32.05;;;13.68;;
20154;SDS011;10238;49.556;10.956;2022-12-18T12:19:45;33.40;;;14.25;;
20154;SDS011;10238;49.556;10.956;2022-12-18T12:22:41;35.95;;;14.68;;
20154;SDS011;10238;49.556;10.956;2022-12-18T12:25:39;32.67;;;14.48;;
20154;SDS011;10238;49.556;10.956;2022-12-18T12:28:42;32.58;;;14.35;;
20154;SDS011;10238;49.556;10.956;2022-12-18T12:31:46;35.28;;;14.18;;
20154;SDS011;10238;49.556;10.956;2022-12-18T12:34:54;29.90;;;14.27;;
20154;SDS011;10238;49.556;10.956;2022-12-18T12:38:00;32.40;;;13.90;;
20154;SDS011;10238;49.556;10.956;2022-12-18T12:40:56;31.65;;;13.32;;
20154;SDS011;10238;49.556;10.956;2022-12-18T12:43:48;33.08;;;14.13;;
20154;SDS011;10238;49.556;10.956;2022-12-18T12:46:37;30.17;;;13.80;;
20154;SDS011;10238;49.556;10.956;2022-12-18T12:49:31;36.28;;;15.20;;
20154;SDS011;10238;49.556;10.956;2022-12-18T12:52:27;32.50;;;15.27;;
20154;SDS011;10238;49.556;10.956;2022-12-18T12:55:21;30.80;;;14.52;;
20154;SDS011;10238;49.556;10.956;2022-12-18T12:58:14;33.78;;;14.63;;
20154;SDS011;10238;49.556;10.956;2022-12-18T13:01:09;34.95;;;15.02;;
20154;SDS011;10238;49.556;10.956;2022-12-18T13:04:12;29.30;;;13.32;;
20154;SDS011;10238;49.556;10.956;2022-12-18T13:07:12;31.35;;;14.52;;
20154;SDS011;10238;49.556;10.956;2022-12-18T13:10:11;27.60;;;13.45;;
20154;SDS011;10238;49.556;10.956;2022-12-18T13:13:14;30.48;;;14.18;;
20154;SDS011;10238;49.556;10.956;2022-12-18T13:16:08;28.73;;;13.90;;
20154;SDS011;10238;49.556;10.956;2022-12-18T13:18:56;36.20;;;14.82;;
20154;SDS011;10238;49.556;10.956;2022-12-18T13:21:45;33.10;;;13.85;;
20154;SDS011;10238;49.556;10.956;2022-12-18T13:24:42;32.40;;;14.68;;
20154;SDS011;10238;49.556;10.956;2022-12-18T13:27:46;39.90;;;16.92;;
20154;SDS011;10238;49.556;10.956;2022-12-18T13:30:50;37.33;;;15.15;;
20154;SDS011;10238;49.556;10.956;2022-12-18T13:33:42;33.72;;;15.05;;
20154;SDS011;10238;49.556;10.956;2022-12-18T13:36:53;33.35;;;14.25;;
20154;SDS011;10238;49.556;10.956;2022-12-18T13:39:46;30.30;;;14.45;;
20154;SDS011;10238;49.556;10.956;2022-12-18T13:42:40;34.85;;;14.35;;
20154;SDS011;10238;49.556;10.956;2022-12-18T13:45:46;33.60;;;14.38;;
20154;SDS011;10238;49.556;10.956;2022-12-18T13:48:49;32.47;;;15.38;;
20154;SDS011;10238;49.556;10.956;2022-12-18T13:51:43;35.10;;;14.32;;
20154;SDS011;10238;49.556;10.956;2022-12-18T13:54:36;30.50;;;13.75;;
20154;SDS011;10238;49.556;10.956;2022-12-18T13:57:33;33.20;;;13.98;;
20154;SDS011;10238;49.556;10.956;2022-12-18T14:00:25;31.23;;;14.98;;
20154;SDS011;10238;49.556;10.956;2022-12-18T14:03:16;35.38;;;15.30;;
20154;SDS011;10238;49.556;10.956;2022-12-18T14:06:07;30.48;;;14.52;;
20154;SDS011;10238;49.556;10.956;2022-12-18T14:08:59;29.70;;;14.53;;
20154;SDS011;10238;49.556;10.956;2022-12-18T14:11:51;29.65;;;14.25;;
20154;SDS011;10238;49.556;10.956;2022-12-18T14:15:03;31.00;;;14.53;;
20154;SDS011;10238;49.556;10.956;2022-12-18T14:18:02;33.05;;;14.32;;
20154;SDS011;10238;49.556;10.956;2022-12-18T14:21:02;29.70;;;14.68;;
20154;SDS011;10238;49.556;10.956;2022-12-18T14:24:02;34.17;;;13.73;;
20154;SDS011;10238;49.556;10.956;2022-12-18T14:27:12;30.38;;;13.15;;
20154;SDS011;10238;49.556;10.956;2022-12-18T14:30:27;27.60;;;13.00;;
20154;SDS011;10238;49.556;10.956;2022-12-18T14:33:16;33.45;;;14.80;;
20154;SDS011;10238;49.556;10.956;2022-12-18T14:36:13;41.15;;;19.30;;
20154;SDS011;10238;49.556;10.956;2022-12-18T14:39:03;37.70;;;16.13;;
20154;SDS011;10238;49.556;10.956;2022-12-18T14:41:51;33.55;;;15.15;;
20154;SDS011;10238;49.556;10.956;2022-12-18T14:44:40;30.65;;;14.40;;
20154;SDS011;10238;49.556;10.956;2022-12-18T14:47:49;30.20;;;13.48;;
20154;SDS011;10238;49.556;10.956;2022-12-18T14:50:37;32.72;;;13.68;;
20154;SDS011;10238;49.556;10.956;2022-12-18T14:53:28;30.15;;;13.93;;
20154;SDS011;10238;49.556;10.956;2022-12-18T14:56:21;30.10;;;14.13;;
20154;SDS011;10238;49.556;10.956;2022-12-18T14:59:12;24.05;;;12.77;;
20154;SDS011;10238;49.556;10.956;2022-12-18T15:02:10;24.23;;;12.23;;
20154;SDS011;10238;49.556;10.956;2022-12-18T15:05:16;29.90;;;13.48;;
20154;SDS011;10238;49.556;10.956;2022-12-18T15:11:28;30.08;;;12.80;;
20154;SDS011;10238;49.556;10.956;2022-12-18T15:14:22;29.13;;;14.02;;
20154;SDS011;10238;49.556;10.956;2022-12-18T15:17:22;27.58;;;13.77;;
20154;SDS011;10238;49.556;10.956;2022-12-18T15:20:13;33.78;;;14.32;;
20154;SDS011;10238;49.556;10.956;2022-12-18T15:23:02;26.63;;;12.77;;
20154;SDS011;10238;49.556;10.956;2022-12-18T15:25:57;27.55;;;12.95;;
20154;SDS011;10238;49.556;10.956;2022-12-18T15:28:46;26.90;;;13.48;;
20154;SDS011;10238;49.556;10.956;2022-12-18T15:31:36;30.73;;;14.05;;
20154;SDS011;10238;49.556;10.956;2022-12-18T15:34:24;28.73;;;13.13;;
20154;SDS011;10238;49.556;10.956;2022-12-18T15:37:14;28.98;;;13.50;;
20154;SDS011;10238;49.556;10.956;2022-12-18T15:40:02;26.27;;;12.43;;
20154;SDS011;10238;49.556;10.956;2022-12-18T15:42:52;29.25;;;13.85;;
20154;SDS011;10238;49.556;10.956;2022-12-18T15:45:59;32.80;;;14.48;;
20154;SDS011;10238;49.556;10.956;2022-12-18T15:48:48;29.08;;;14.05;;
20154;SDS011;10238;49.556;10.956;2022-12-18T15:51:45;32.50;;;14.57;;
20154;SDS011;10238;49.556;10.956;2022-12-18T15:54:39;39.40;;;15.45;;
20154;SDS011;10238;49.556;10.956;2022-12-18T15:57:45;33.67;;;14.77;;
20154;SDS011;10238;49.556;10.956;2022-12-18T16:00:33;34.75;;;14.80;;
20154;SDS011;10238;49.556;10.956;2022-12-18T16:03:23;35.13;;;15.63;;
20154;SDS011;10238;49.556;10.956;2022-12-18T16:06:11;31.85;;;14.27;;
20154;SDS011;10238;49.556;10.956;2022-12-18T16:08:58;33.42;;;15.73;;
20154;SDS011;10238;49.556;10.956;2022-12-18T16:11:48;34.40;;;15.15;;
20154;SDS011;10238;49.556;10.956;2022-12-18T16:14:36;32.15;;;13.60;;
20154;SDS011;10238;49.556;10.956;2022-12-18T16:17:24;28.15;;;13.55;;
20154;SDS011;10238;49.556;10.956;2022-12-18T16:20:12;31.92;;;15.18;;
20154;SDS011;10238;49.556;10.956;2022-12-18T16:23:01;33.03;;;13.43;;
20154;SDS011;10238;49.556;10.956;2022-12-18T16:25:49;37.20;;;15.73;;
20154;SDS011;10238;49.556;10.956;2022-12-18T16:28:39;33.30;;;14.63;;
20154;SDS011;10238;49.556;10.956;2022-12-18T16:31:33;28.98;;;14.35;;
20154;SDS011;10238;49.556;10.956;2022-12-18T16:34:22;32.53;;;15.07;;
20154;SDS011;10238;49.556;10.956;2022-12-18T16:37:15;32.13;;;14.65;;
20154;SDS011;10238;49.556;10.956;2022-12-18T16:40:03;34.42;;;15.10;;
20154;SDS011;10238;49.556;10.956;2022-12-18T16:42:54;33.88;;;15.60;;
20154;SDS011;10238;49.556;10.956;2022-12-18T16:45:43;36.63;;;15.55;;